The Guardian — 3EIM4 — position and weather

sailwx.info

Track history (hours):
 
Tides and Currents Weather Stations Pressure Air Temp Water Temp Dewpoint Dewpoint Depression Visibility Wind Speed Wind Dir Waves Ship Positions

The Guardian

Last reported at 2018-Feb-01 09:19 UTC. Time now 2018-Feb-21 21:14 UTC.
Position S 30°27' E 030°45'.
Warning: this ship's position is 20 days out of date.

Length 229 m; draft 8.6 m.

Type: Cargo ship. MMSI: 351597000.

Date/timePositionNaut miles runAvg speedWind from/ knotsBaromVisibWave heightAir tempDewpointWater temp
2018-Feb-01 09:19S 30°27' E 030°45'412.9
2018-Feb-01 09:00S 30°24' E 030°47'1912.8
2018-Feb-01 07:30S 30°08' E 030°59'612.0
2018-Feb-01 07:00S 30°03' E 031°04'611.5
2018-Feb-01 06:30S 29°59' E 031°08'510.3
2018-Feb-01 06:00S 29°55' E 031°11'2 4.2
2018-Feb-01 05:30S 29°53' E 031°12'2 3.2
2018-Feb-01 05:00S 29°52' E 031°11'1 2.3
2018-Feb-01 04:30S 29°52' E 031°09'0 0.5
2018-Feb-01 04:00S 29°52' E 031°10'2 2.4
2018-Feb-01 03:00S 29°51' E 031°12'2 4.8
2018-Feb-01 02:30S 29°50' E 031°14'4 8.3
2018-Feb-01 01:59S 29°47' E 031°18'4 8.5
2018-Feb-01 01:30S 29°44' E 031°22'4 8.9
2018-Feb-01 01:00S 29°42' E 031°26'510.7
2018-Feb-01 00:30S 29°38' E 031°31'611.2
2018-Feb-01 00:00S 29°35' E 031°36'1212.1
2018-Jan-31 23:00S 29°27' E 031°46'612.5
2018-Jan-31 22:30S 29°22' E 031°52'  
Track history (hours):
 
Tides and Currents Weather Stations Pressure Air Temp Water Temp Dewpoint Dewpoint Depression Visibility Wind Speed Wind Dir Waves Ship Positions

The Guardian

Last reported at 2018-Feb-01 09:19 UTC. Time now 2018-Feb-21 21:14 UTC.
Position S 30°27' E 030°45'.
Warning: this ship's position is 20 days out of date.

Length 229 m; draft 8.6 m.

Type: Cargo ship. MMSI: 351597000.

Date/timePositionNaut miles runAvg speedWind from/ knotsBaromVisibWave heightAir tempDewpointWater temp
2018-Feb-01 09:19S 30°27' E 030°45'412.9
2018-Feb-01 09:00S 30°24' E 030°47'1912.8
2018-Feb-01 07:30S 30°08' E 030°59'612.0
2018-Feb-01 07:00S 30°03' E 031°04'611.5
2018-Feb-01 06:30S 29°59' E 031°08'510.3
2018-Feb-01 06:00S 29°55' E 031°11'2 4.2
2018-Feb-01 05:30S 29°53' E 031°12'2 3.2
2018-Feb-01 05:00S 29°52' E 031°11'1 2.3
2018-Feb-01 04:30S 29°52' E 031°09'0 0.5
2018-Feb-01 04:00S 29°52' E 031°10'2 2.4
2018-Feb-01 03:00S 29°51' E 031°12'2 4.8
2018-Feb-01 02:30S 29°50' E 031°14'4 8.3
2018-Feb-01 01:59S 29°47' E 031°18'4 8.5
2018-Feb-01 01:30S 29°44' E 031°22'4 8.9
2018-Feb-01 01:00S 29°42' E 031°26'510.7
2018-Feb-01 00:30S 29°38' E 031°31'611.2
2018-Feb-01 00:00S 29°35' E 031°36'1212.1
2018-Jan-31 23:00S 29°27' E 031°46'612.5
2018-Jan-31 22:30S 29°22' E 031°52'  

Dump ship's entire track history